Time;durP1;ratioP1;P1;durP2;ratioP2;P2;SDS_P1;SDS_P2;PMS_P1;PMS_P2;Temp;Humidity;BMP_temperature;BMP_pressure;BME280_temperature;BME280_humidity;BME280_pressure;Samples;Min_cycle;Max_cycle;Signal;HPM_P1;HPM_P2
2022/09/13 00:01:51;;;;;;;7.30;5.90;;;14.30;99.90;;;;;;5051467;28;20835;-66
2022/09/13 00:04:18;;;;;;;7.47;5.00;;;14.30;99.90;;;;;;5051450;28;20441;-67
2022/09/13 00:06:45;;;;;;;5.40;4.63;;;14.30;99.90;;;;;;5051655;28;20453;-66
2022/09/13 00:09:12;;;;;;;6.60;5.00;;;14.30;99.90;;;;;;5051855;28;20448;-67
2022/09/13 00:11:39;;;;;;;5.73;5.23;;;14.30;99.90;;;;;;5051628;28;20978;-67
2022/09/13 00:14:06;;;;;;;6.47;5.87;;;14.30;99.90;;;;;;5051448;28;20436;-68
2022/09/13 00:16:33;;;;;;;7.50;5.80;;;14.30;99.90;;;;;;5051591;28;20483;-67
2022/09/13 00:19:01;;;;;;;7.33;5.17;;;14.20;99.90;;;;;;5051364;28;20448;-67
2022/09/13 00:21:27;;;;;;;6.30;5.20;;;14.30;99.90;;;;;;5051423;28;20463;-67
2022/09/13 00:23:55;;;;;;;5.60;5.10;;;14.30;99.90;;;;;;5051099;28;20454;-67
2022/09/13 00:26:25;;;;;;;5.97;5.20;;;14.20;99.90;;;;;;5051597;28;20470;-70
2022/09/13 00:28:53;;;;;;;6.63;5.33;;;14.10;99.90;;;;;;5051216;28;20455;-67
2022/09/13 00:31:22;;;;;;;6.50;5.87;;;14.10;99.90;;;;;;5051299;28;20704;-67
2022/09/13 00:33:48;;;;;;;8.63;6.23;;;14.00;99.90;;;;;;5050381;28;20494;-68
2022/09/13 00:36:17;;;;;;;7.13;5.80;;;14.00;99.90;;;;;;5051057;28;20487;-67
2022/09/13 00:38:44;;;;;;;8.40;6.00;;;13.90;99.90;;;;;;5051002;28;20455;-67
2022/09/13 00:41:14;;;;;;;7.00;6.30;;;14.00;99.90;;;;;;5050726;28;20470;-69
2022/09/13 00:43:44;;;;;;;7.57;6.10;;;14.00;99.90;;;;;;5050747;28;20447;-68
2022/09/13 00:46:13;;;;;;;8.03;6.30;;;14.00;99.90;;;;;;5050974;28;20443;-68
2022/09/13 00:48:41;;;;;;;6.77;6.07;;;14.00;99.90;;;;;;5050851;28;20960;-67
2022/09/13 00:51:10;;;;;;;5.97;5.23;;;13.90;99.90;;;;;;5050594;28;20531;-68
2022/09/13 00:53:41;;;;;;;7.83;6.10;;;13.90;99.90;;;;;;5050308;28;20949;-67
2022/09/13 00:56:12;;;;;;;6.13;5.53;;;13.90;99.90;;;;;;5050604;28;20491;-67
2022/09/13 00:58:42;;;;;;;6.77;6.03;;;13.90;99.90;;;;;;5050531;28;20447;-67
2022/09/13 01:01:12;;;;;;;7.97;5.60;;;13.80;99.90;;;;;;5050719;28;20451;-67
2022/09/13 01:03:41;;;;;;;6.73;6.13;;;13.80;99.90;;;;;;5050041;28;20455;-67
2022/09/13 01:06:11;;;;;;;6.33;5.73;;;13.70;99.90;;;;;;5050296;28;21167;-67
2022/09/13 01:08:41;;;;;;;5.50;4.97;;;13.70;99.90;;;;;;5050542;28;20463;-67
2022/09/13 01:11:12;;;;;;;6.87;6.13;;;13.60;99.90;;;;;;5050282;28;20448;-66
2022/09/13 01:13:39;;;;;;;6.40;5.80;;;13.50;99.90;;;;;;5049884;28;20550;-66
2022/09/13 01:16:06;;;;;;;6.40;5.80;;;13.50;99.90;;;;;;5049923;28;20475;-66
2022/09/13 01:18:33;;;;;;;9.50;6.20;;;13.50;99.90;;;;;;5050468;28;20448;-67
2022/09/13 01:21:33;;;;;;;6.70;6.10;;;13.50;99.90;;;;;;5050031;28;20820;-67
2022/09/13 01:24:28;;;;;;;5.83;5.33;;;13.50;99.90;;;;;;5049883;28;20444;-67
2022/09/13 01:27:23;;;;;;;7.57;6.47;;;13.50;99.90;;;;;;5018967;28;20440;-68
2022/09/13 01:30:22;;;;;;;7.80;6.00;;;13.40;99.90;;;;;;5050169;28;20801;-67
2022/09/13 01:33:04;;;;;;;7.63;6.93;;;13.40;99.90;;;;;;5037309;28;20534;-66
2022/09/13 01:35:42;;;;;;;8.53;7.00;;;13.50;99.90;;;;;;5050094;28;20440;-67
2022/09/13 01:38:20;;;;;;;8.40;6.03;;;13.40;99.90;;;;;;5049918;28;20491;-67
2022/09/13 01:40:57;;;;;;;7.77;7.00;;;13.40;99.90;;;;;;5049864;28;20799;-67
2022/09/13 01:43:40;;;;;;;7.07;6.37;;;13.40;99.90;;;;;;5049607;28;20513;-68
2022/09/13 01:46:13;;;;;;;7.80;6.70;;;13.40;99.90;;;;;;5049731;28;20448;-69
2022/09/13 01:48:53;;;;;;;9.13;6.77;;;13.40;99.90;;;;;;5050121;28;20452;-68
2022/09/13 01:51:27;;;;;;;6.90;6.20;;;13.40;99.90;;;;;;5049733;28;20475;-68
2022/09/13 01:54:06;;;;;;;6.73;6.13;;;13.30;99.90;;;;;;5049075;28;20952;-67
2022/09/13 01:56:38;;;;;;;6.87;6.17;;;13.20;99.90;;;;;;5049764;28;20484;-67
2022/09/13 01:59:10;;;;;;;7.93;6.53;;;13.20;99.90;;;;;;5049876;28;20486;-67
2022/09/13 02:01:44;;;;;;;6.53;5.87;;;13.10;99.90;;;;;;5049827;28;20491;-67
2022/09/13 02:04:15;;;;;;;8.20;6.23;;;13.10;99.90;;;;;;5049532;28;20934;-70
2022/09/13 02:06:47;;;;;;;6.07;5.50;;;13.10;99.90;;;;;;5049907;28;20507;-67
2022/09/13 02:09:17;;;;;;;6.93;6.30;;;13.10;99.90;;;;;;5049696;28;20447;-67
2022/09/13 02:11:49;;;;;;;6.67;5.57;;;13.10;99.90;;;;;;5049063;28;20460;-66
2022/09/13 02:14:19;;;;;;;5.90;5.30;;;13.10;99.90;;;;;;5049572;28;20448;-66
2022/09/13 02:16:52;;;;;;;5.30;4.80;;;13.10;99.90;;;;;;5050041;28;20490;-66
2022/09/13 02:19:24;;;;;;;5.70;5.10;;;13.10;99.90;;;;;;5049470;28;20444;-69
2022/09/13 02:21:55;;;;;;;6.73;6.13;;;13.10;99.90;;;;;;5049170;28;20486;-68
2022/09/13 02:24:26;;;;;;;5.90;5.40;;;13.10;99.90;;;;;;5049365;28;20482;-67
2022/09/13 02:26:55;;;;;;;7.27;6.47;;;13.10;99.90;;;;;;5049754;28;20475;-68
2022/09/13 02:29:24;;;;;;;8.73;7.43;;;13.20;99.90;;;;;;5049643;28;20451;-67
2022/09/13 02:31:56;;;;;;;8.23;7.37;;;13.20;99.90;;;;;;5049066;28;20482;-68
2022/09/13 02:34:27;;;;;;;9.50;7.17;;;13.20;99.90;;;;;;5049525;28;20448;-69
2022/09/13 02:36:57;;;;;;;10.43;6.90;;;13.10;99.90;;;;;;5049085;28;20483;-67
2022/09/13 02:39:27;;;;;;;8.07;7.27;;;13.10;99.90;;;;;;5049411;28;20476;-68
2022/09/13 02:41:58;;;;;;;9.27;8.40;;;13.10;99.90;;;;;;5048749;28;20459;-67
2022/09/13 02:44:32;;;;;;;8.23;7.43;;;13.10;99.90;;;;;;5049412;28;20466;-67
2022/09/13 02:47:10;;;;;;;8.10;7.30;;;13.20;99.90;;;;;;5049055;28;21027;-67
2022/09/13 02:49:49;;;;;;;9.20;8.27;;;13.20;99.90;;;;;;5049425;28;20883;-67
2022/09/13 02:52:23;;;;;;;8.47;7.60;;;13.20;99.90;;;;;;5048853;28;21016;-68
2022/09/13 02:54:55;;;;;;;8.90;8.10;;;13.20;99.90;;;;;;5049223;28;20452;-67
2022/09/13 02:57:30;;;;;;;12.00;9.53;;;13.20;99.90;;;;;;5048971;28;20475;-67
2022/09/13 02:59:57;;;;;;;9.27;8.17;;;13.20;99.90;;;;;;5048930;28;20471;-66
2022/09/13 03:02:31;;;;;;;9.73;8.60;;;13.20;99.90;;;;;;5048990;28;20467;-66
2022/09/13 03:04:59;;;;;;;10.20;8.20;;;13.20;99.90;;;;;;5051822;28;20799;-67
2022/09/13 03:07:26;;;;;;;10.30;8.80;;;13.10;99.90;;;;;;5052829;28;20450;-68
2022/09/13 03:09:57;;;;;;;9.20;8.30;;;13.10;99.90;;;;;;5052742;28;20452;-67
2022/09/13 03:12:36;;;;;;;8.90;8.00;;;13.10;99.90;;;;;;5052359;28;20463;-67
2022/09/13 03:15:11;;;;;;;9.10;8.20;;;13.00;99.90;;;;;;5052434;28;20444;-67
2022/09/13 03:17:52;;;;;;;11.10;8.63;;;13.00;99.90;;;;;;5052445;28;20479;-68
2022/09/13 03:20:29;;;;;;;11.97;8.60;;;13.00;99.90;;;;;;5052759;28;20448;-67
2022/09/13 03:23:15;;;;;;;7.67;6.87;;;12.90;99.90;;;;;;5051989;28;20467;-67
2022/09/13 03:26:04;;;;;;;6.93;6.20;;;12.90;99.90;;;;;;5052602;28;21278;-67
2022/09/13 03:28:39;;;;;;;6.77;6.20;;;12.80;99.90;;;;;;5052892;28;20442;-67
2022/09/13 03:31:10;;;;;;;6.60;5.87;;;12.80;99.90;;;;;;5052905;28;20444;-67
2022/09/13 03:33:45;;;;;;;6.07;5.47;;;12.70;99.90;;;;;;5052480;28;20448;-68
2022/09/13 03:36:16;;;;;;;7.00;6.17;;;12.70;99.90;;;;;;5052954;28;20815;-66
2022/09/13 03:38:53;;;;;;;6.20;5.60;;;12.70;99.90;;;;;;5052681;28;20491;-68
2022/09/13 03:41:24;;;;;;;6.83;6.17;;;12.70;99.90;;;;;;5052233;28;20474;-66
2022/09/13 03:43:55;;;;;;;6.50;5.90;;;12.70;99.90;;;;;;5051787;28;20448;-67
2022/09/13 03:46:29;;;;;;;7.27;6.10;;;12.80;99.90;;;;;;5052299;28;20444;-67
2022/09/13 03:49:00;;;;;;;6.67;6.00;;;12.80;99.90;;;;;;5052137;28;20444;-67
2022/09/13 03:51:27;;;;;;;7.93;6.30;;;12.90;99.90;;;;;;5052313;28;20480;-68
2022/09/13 03:53:58;;;;;;;6.37;5.77;;;12.80;99.90;;;;;;5051619;28;20440;-67
2022/09/13 03:56:25;;;;;;;6.70;6.20;;;12.70;99.90;;;;;;5051939;28;20957;-67
2022/09/13 03:58:51;;;;;;;5.30;4.87;;;12.80;99.90;;;;;;5051478;28;20476;-67
2022/09/13 04:01:21;;;;;;;6.97;6.27;;;12.80;99.90;;;;;;5051532;28;20470;-68
2022/09/13 04:03:48;;;;;;;6.60;5.47;;;12.70;99.90;;;;;;5051265;28;20460;-68
2022/09/13 04:06:16;;;;;;;6.63;6.03;;;12.50;99.90;;;;;;5051854;28;20450;-68
2022/09/13 04:08:43;;;;;;;7.17;5.73;;;12.40;99.90;;;;;;5051610;28;20440;-68
2022/09/13 04:11:10;;;;;;;6.33;5.80;;;12.40;99.90;;;;;;5051575;28;20502;-68
2022/09/13 04:13:37;;;;;;;9.37;6.57;;;12.40;99.90;;;;;;5051219;28;20448;-68
2022/09/13 04:16:05;;;;;;;11.23;8.37;;;12.40;99.90;;;;;;5050738;28;20456;-68
2022/09/13 04:18:33;;;;;;;7.17;6.47;;;12.30;99.90;;;;;;5051489;28;20495;-68
2022/09/13 04:21:00;;;;;;;7.07;6.17;;;12.30;99.90;;;;;;5051013;28;20451;-66
2022/09/13 04:23:30;;;;;;;6.43;5.83;;;12.40;99.90;;;;;;5051065;28;20683;-67
2022/09/13 04:26:01;;;;;;;6.23;5.63;;;12.40;99.90;;;;;;5051000;28;20444;-67
2022/09/13 04:28:28;;;;;;;8.10;5.80;;;12.50;99.90;;;;;;5051160;28;20448;-68
2022/09/13 04:30:55;;;;;;;6.63;6.03;;;12.40;99.90;;;;;;5050652;28;21001;-68
2022/09/13 04:33:22;;;;;;;8.47;5.70;;;12.40;99.90;;;;;;5050494;28;20448;-67
2022/09/13 04:35:53;;;;;;;6.43;5.80;;;12.50;99.90;;;;;;5050666;28;20444;-68
2022/09/13 04:38:20;;;;;;;8.33;6.10;;;12.50;99.90;;;;;;5051084;28;20491;-66
2022/09/13 04:40:54;;;;;;;6.20;5.60;;;12.70;99.90;;;;;;5050694;28;20471;-67
2022/09/13 04:43:21;;;;;;;7.30;6.53;;;12.70;99.90;;;;;;5064528;28;20500;-67
2022/09/13 04:45:47;;;;;;;6.93;5.77;;;12.80;99.90;;;;;;5050483;28;20451;-68
2022/09/13 04:48:14;;;;;;;9.80;6.97;;;13.00;99.90;;;;;;5050715;28;20444;-67
2022/09/13 04:50:41;;;;;;;7.40;6.57;;;13.00;99.90;;;;;;5049862;28;20448;-68
2022/09/13 04:53:08;;;;;;;10.50;7.67;;;13.10;99.90;;;;;;5050514;28;20475;-67
2022/09/13 04:55:35;;;;;;;8.10;7.30;;;13.10;99.90;;;;;;5047448;28;20444;-69
2022/09/13 04:58:04;;;;;;;9.50;6.90;;;13.20;99.90;;;;;;5048726;28;20997;-68
2022/09/13 05:00:30;;;;;;;7.03;5.27;;;13.30;99.90;;;;;;5050222;28;20455;-67
2022/09/13 05:02:57;;;;;;;13.83;6.60;;;13.20;99.90;;;;;;5049318;28;20476;-69
2022/09/13 05:05:27;;;;;;;6.10;5.50;;;13.30;99.90;;;;;;5041600;28;20461;-65
2022/09/13 05:07:54;;;;;;;11.20;6.43;;;13.30;99.90;;;;;;5042329;28;20471;-66
2022/09/13 05:10:21;;;;;;;8.40;7.00;;;13.30;99.90;;;;;;5045641;28;20877;-67
2022/09/13 05:12:47;;;;;;;8.30;6.80;;;13.30;99.90;;;;;;5041048;28;20468;-67
2022/09/13 05:15:16;;;;;;;9.57;6.47;;;13.40;99.90;;;;;;5047786;28;20836;-67
2022/09/13 05:17:43;;;;;;;6.23;5.73;;;13.30;99.90;;;;;;5038685;28;20490;-67
2022/09/13 05:20:10;;;;;;;6.70;6.10;;;13.40;99.90;;;;;;5045786;28;20470;-69
2022/09/13 05:22:37;;;;;;;6.50;5.90;;;13.30;99.90;;;;;;5047574;28;20472;-67
2022/09/13 05:25:04;;;;;;;6.60;6.00;;;13.20;99.90;;;;;;5048080;28;20452;-69
2022/09/13 05:27:31;;;;;;;7.40;6.70;;;13.20;99.90;;;;;;5045363;28;20448;-67
2022/09/13 05:29:58;;;;;;;7.83;7.03;;;13.20;99.90;;;;;;5047755;28;20447;-67
2022/09/13 05:32:26;;;;;;;8.37;7.63;;;13.10;99.90;;;;;;5047317;28;20535;-66
2022/09/13 05:34:53;;;;;;;6.87;6.20;;;13.20;99.90;;;;;;5048731;28;20456;-67
2022/09/13 05:37:20;;;;;;;7.03;5.83;;;13.20;99.90;;;;;;5046909;28;20546;-67
2022/09/13 05:39:46;;;;;;;7.33;6.60;;;13.20;99.90;;;;;;5049855;28;20447;-68
2022/09/13 05:42:13;;;;;;;6.47;5.80;;;13.30;99.90;;;;;;5049602;28;20468;-67
2022/09/13 05:44:40;;;;;;;11.07;6.00;;;13.40;99.90;;;;;;5050128;28;20448;-67
2022/09/13 05:47:07;;;;;;;7.87;6.50;;;13.40;99.90;;;;;;5050212;28;20448;-67
2022/09/13 05:49:35;;;;;;;6.17;5.63;;;13.50;99.90;;;;;;5050227;28;20523;-67
2022/09/13 05:52:02;;;;;;;6.47;5.50;;;13.40;99.90;;;;;;5049599;28;20472;-68
2022/09/13 05:54:29;;;;;;;6.83;5.90;;;13.40;99.90;;;;;;5049321;28;20444;-69
2022/09/13 05:56:56;;;;;;;6.83;6.03;;;13.50;99.90;;;;;;5049430;28;20447;-67
2022/09/13 05:59:23;;;;;;;6.57;5.93;;;13.50;99.90;;;;;;5049912;28;20491;-68
2022/09/13 06:01:50;;;;;;;8.60;6.40;;;13.60;99.90;;;;;;5049266;28;20985;-67
2022/09/13 06:04:17;;;;;;;6.47;5.87;;;13.70;99.90;;;;;;5049719;28;20440;-67
2022/09/13 06:06:45;;;;;;;8.90;6.67;;;13.80;99.90;;;;;;5049553;28;20451;-68
2022/09/13 06:09:12;;;;;;;9.80;6.30;;;13.90;99.90;;;;;;5044333;28;20448;-67
2022/09/13 06:11:39;;;;;;;9.40;7.10;;;14.00;99.90;;;;;;5048853;28;21033;-68
2022/09/13 06:14:06;;;;;;;7.20;6.50;;;14.20;99.90;;;;;;5047836;28;20444;-65
2022/09/13 06:16:33;;;;;;;9.10;6.50;;;14.40;99.90;;;;;;5047136;28;20993;-65
2022/09/13 06:18:59;;;;;;;9.20;6.27;;;14.50;99.90;;;;;;5048806;28;20491;-66
2022/09/13 06:21:27;;;;;;;7.13;5.90;;;14.50;99.90;;;;;;5047969;28;20989;-66
2022/09/13 06:23:55;;;;;;;6.13;5.53;;;14.60;99.90;;;;;;5047699;28;20455;-67
2022/09/13 06:26:24;;;;;;;6.60;5.50;;;14.80;99.90;;;;;;5048297;28;21013;-67
2022/09/13 06:28:52;;;;;;;7.67;5.63;;;14.90;99.90;;;;;;5048252;28;20440;-67
2022/09/13 06:31:21;;;;;;;7.60;6.03;;;15.00;99.90;;;;;;5048223;28;20467;-67
2022/09/13 06:33:48;;;;;;;9.23;6.53;;;15.00;99.90;;;;;;5048027;28;20976;-66
2022/09/13 06:36:17;;;;;;;8.20;6.23;;;14.90;99.90;;;;;;5048282;28;20456;-67
2022/09/13 06:38:45;;;;;;;8.73;6.87;;;14.90;99.90;;;;;;5048901;28;20541;-67
2022/09/13 06:41:17;;;;;;;10.60;7.53;;;14.90;99.90;;;;;;5051774;28;20471;-67
2022/09/13 06:43:44;;;;;;;8.40;6.00;;;14.90;99.90;;;;;;5052718;28;20459;-67
2022/09/13 06:46:13;;;;;;;10.20;6.70;;;14.90;99.90;;;;;;5052892;28;20452;-67
2022/09/13 06:48:41;;;;;;;8.77;6.47;;;15.00;99.90;;;;;;5052199;28;20456;-67
2022/09/13 06:51:11;;;;;;;7.27;6.60;;;14.90;99.90;;;;;;5053239;28;20448;-66
2022/09/13 06:53:38;;;;;;;9.17;7.53;;;14.90;99.90;;;;;;5049845;28;20455;-66
2022/09/13 06:56:07;;;;;;;8.43;6.77;;;14.90;99.90;;;;;;5052344;28;20444;-66
2022/09/13 06:58:36;;;;;;;8.50;7.30;;;15.00;99.90;;;;;;5052242;28;20472;-67
2022/09/13 07:01:11;;;;;;;9.30;6.87;;;15.20;99.90;;;;;;5050270;28;20813;-67
2022/09/13 07:03:39;;;;;;;7.47;6.77;;;15.20;99.90;;;;;;5052281;28;20816;-67
2022/09/13 07:06:09;;;;;;;8.60;7.43;;;15.40;99.90;;;;;;5052155;28;20447;-67
2022/09/13 07:08:35;;;;;;;7.70;6.87;;;15.50;99.90;;;;;;5047987;28;20519;-66
2022/09/13 07:11:02;;;;;;;8.30;6.87;;;15.70;99.90;;;;;;5050863;28;20459;-66
2022/09/13 07:13:29;;;;;;;6.13;5.53;;;15.90;99.90;;;;;;5051211;28;20531;-66
2022/09/13 07:16:01;;;;;;;8.57;5.80;;;16.10;99.90;;;;;;5052817;28;20447;-66
2022/09/13 07:18:28;;;;;;;6.87;5.67;;;16.40;99.90;;;;;;5051586;28;20475;-66
2022/09/13 07:21:00;;;;;;;6.00;5.40;;;16.50;99.90;;;;;;5051542;28;20440;-67
2022/09/13 07:23:27;;;;;;;7.83;6.20;;;16.70;99.90;;;;;;5049896;28;20440;-68
2022/09/13 07:25:55;;;;;;;8.53;6.20;;;16.80;99.90;;;;;;5048751;28;20455;-66
2022/09/13 07:28:21;;;;;;;6.63;5.90;;;16.90;99.90;;;;;;5050165;28;20444;-67
2022/09/13 07:30:48;;;;;;;7.83;6.20;;;17.00;99.90;;;;;;5051741;28;20932;-66
2022/09/13 07:33:16;;;;;;;6.93;5.77;;;17.10;99.90;;;;;;5051164;28;20480;-68
2022/09/13 07:35:43;;;;;;;11.17;6.97;;;17.10;99.90;;;;;;5050141;28;20456;-69
2022/09/13 07:38:10;;;;;;;6.90;5.80;;;17.20;99.90;;;;;;5051819;28;20483;-66
2022/09/13 07:40:37;;;;;;;8.43;5.77;;;17.40;99.90;;;;;;5051910;28;20452;-66
2022/09/13 07:43:04;;;;;;;7.10;5.13;;;17.60;99.90;;;;;;5051748;28;20977;-66
2022/09/13 07:45:31;;;;;;;5.93;5.33;;;17.90;99.90;;;;;;5056431;28;21004;-67
2022/09/13 07:47:57;;;;;;;5.13;4.70;;;18.20;99.90;;;;;;5071385;28;20449;-68
2022/09/13 07:50:25;;;;;;;5.83;4.43;;;18.50;99.90;;;;;;5071195;28;20450;-67
2022/09/13 07:52:53;;;;;;;5.40;4.50;;;18.90;99.90;;;;;;5070519;28;20471;-67
2022/09/13 07:55:20;;;;;;;5.93;4.10;;;19.40;99.90;;;;;;5072039;28;20447;-67
2022/09/13 07:57:46;;;;;;;5.20;4.60;;;19.80;99.90;;;;;;5071820;28;20443;-68
2022/09/13 08:00:15;;;;;;;5.83;4.27;;;20.30;99.90;;;;;;5071780;28;20863;-66
2022/09/13 08:02:42;;;;;;;7.75;4.20;;;20.60;99.90;;;;;;5070035;28;20430;-68
2022/09/13 08:05:09;;;;;;;4.53;4.10;;;20.90;99.90;;;;;;5071318;28;20223;-68
2022/09/13 08:07:37;;;;;;;4.00;3.53;;;21.30;99.90;;;;;;5071472;28;20470;-67
2022/09/13 08:10:04;;;;;;;4.50;3.87;;;21.60;99.90;;;;;;5070567;28;20447;-67
2022/09/13 08:12:31;;;;;;;3.90;3.37;;;21.90;99.90;;;;;;5070470;28;20463;-68
2022/09/13 08:14:57;;;;;;;6.13;4.07;;;22.10;99.90;;;;;;5071321;28;20450;-68
2022/09/13 08:17:24;;;;;;;5.30;3.47;;;22.30;99.90;;;;;;5071065;28;20454;-70
2022/09/13 08:19:51;;;;;;;6.20;3.47;;;22.30;99.90;;;;;;5071269;28;20489;-70
2022/09/13 08:22:18;;;;;;;5.00;3.30;;;22.60;99.90;;;;;;5070447;28;20482;-68
2022/09/13 08:24:47;;;;;;;3.83;2.63;;;22.70;99.90;;;;;;5054681;28;20452;-70
2022/09/13 08:27:13;;;;;;;3.80;3.20;;;22.90;99.90;;;;;;5051294;28;20448;-69
2022/09/13 08:29:40;;;;;;;4.40;3.50;;;23.10;99.90;;;;;;5048928;28;20448;-68
2022/09/13 08:32:07;;;;;;;3.17;2.87;;;23.10;99.90;;;;;;5050547;28;20452;-69
2022/09/13 08:34:34;;;;;;;3.00;2.60;;;23.00;99.90;;;;;;5050738;28;20447;-70
2022/09/13 08:37:00;;;;;;;7.97;3.47;;;23.00;99.90;;;;;;5047108;28;20448;-67
2022/09/13 08:39:27;;;;;;;5.43;2.77;;;23.20;99.90;;;;;;5049503;28;20487;-68
2022/09/13 08:42:06;;;;;;;3.43;2.70;;;23.40;99.90;;;;;;5049979;28;20551;-68
2022/09/13 08:44:36;;;;;;;4.00;3.00;;;23.60;99.90;;;;;;5030542;28;20829;-68
2022/09/13 08:47:26;;;;;;;3.27;2.97;;;23.70;99.90;;;;;;5050272;28;20466;-67
2022/09/13 08:50:04;;;;;;;2.93;2.73;;;23.70;99.90;;;;;;5047261;28;20443;-68
2022/09/13 08:52:35;;;;;;;3.40;2.93;;;23.80;99.90;;;;;;5049797;28;20991;-68
2022/09/13 08:55:08;;;;;;;3.07;2.80;;;24.20;99.90;;;;;;5050613;28;20440;-68
2022/09/13 08:57:45;;;;;;;2.60;2.37;;;24.60;99.90;;;;;;5050366;28;20969;-67
2022/09/13 09:00:18;;;;;;;2.50;2.30;;;25.00;99.90;;;;;;5050003;28;20472;-66
2022/09/13 09:02:57;;;;;;;2.43;2.00;;;25.30;99.90;;;;;;5045524;28;20466;-68
2022/09/13 09:05:27;;;;;;;2.70;2.50;;;25.70;99.90;;;;;;5050779;28;20447;-67
2022/09/13 09:07:59;;;;;;;2.70;2.50;;;25.70;99.90;;;;;;5050960;28;20451;-67
2022/09/13 09:10:31;;;;;;;3.60;2.60;;;26.00;99.90;;;;;;5050586;28;20436;-66
2022/09/13 09:13:03;;;;;;;2.70;2.37;;;26.30;99.90;;;;;;5050018;28;20545;-67
2022/09/13 09:15:35;;;;;;;3.57;2.60;;;26.70;99.00;;;;;;5046454;28;20452;-66
2022/09/13 09:18:09;;;;;;;3.83;2.70;;;26.80;98.30;;;;;;5048407;28;20455;-66
2022/09/13 09:20:41;;;;;;;4.13;2.90;;;27.00;98.20;;;;;;5050349;28;20479;-65
2022/09/13 09:23:14;;;;;;;3.17;2.87;;;27.10;96.30;;;;;;5049399;28;20476;-65
2022/09/13 09:25:41;;;;;;;2.73;2.53;;;26.90;96.30;;;;;;5047493;28;20462;-66
2022/09/13 09:28:13;;;;;;;3.43;2.27;;;26.90;96.50;;;;;;5049119;28;20456;-66
2022/09/13 09:30:49;;;;;;;4.03;2.17;;;27.10;96.70;;;;;;5047443;28;21079;-65
2022/09/13 09:33:31;;;;;;;2.50;2.30;;;27.30;96.40;;;;;;5048208;28;20462;-65
2022/09/13 09:36:05;;;;;;;4.83;2.43;;;27.60;96.20;;;;;;5050255;28;20447;-66
2022/09/13 09:38:40;;;;;;;5.03;2.80;;;27.80;96.60;;;;;;5046389;28;20464;-66
2022/09/13 09:41:13;;;;;;;3.00;2.27;;;27.80;95.30;;;;;;5046231;28;21210;-63
2022/09/13 09:43:46;;;;;;;3.37;3.07;;;27.60;96.50;;;;;;5047570;28;20455;-64
2022/09/13 09:46:16;;;;;;;3.77;2.93;;;27.30;95.70;;;;;;5049709;28;20804;-64
2022/09/13 09:48:48;;;;;;;2.87;2.17;;;26.80;95.50;;;;;;5048711;28;21018;-64
2022/09/13 09:51:18;;;;;;;3.57;2.60;;;26.40;97.50;;;;;;5049314;28;20472;-64
2022/09/13 09:53:49;;;;;;;2.97;2.27;;;26.50;97.80;;;;;;5050301;28;20440;-65
2022/09/13 09:56:22;;;;;;;2.83;2.47;;;26.40;96.40;;;;;;5062858;28;20794;-64
2022/09/13 09:58:52;;;;;;;3.30;2.50;;;25.90;97.00;;;;;;5049406;28;20451;-64
2022/09/13 10:01:24;;;;;;;2.93;2.63;;;25.70;97.30;;;;;;5049094;28;21008;-64
2022/09/13 10:04:04;;;;;;;3.10;2.27;;;25.70;98.40;;;;;;5049331;28;20502;-65
2022/09/13 10:06:31;;;;;;;4.93;2.00;;;25.80;98.00;;;;;;5047149;28;20447;-64
2022/09/13 10:09:01;;;;;;;3.10;2.67;;;26.10;98.00;;;;;;5048982;28;20451;-64
2022/09/13 10:11:43;;;;;;;2.10;1.90;;;26.30;97.00;;;;;;5046768;28;20995;-64
2022/09/13 10:14:35;;;;;;;2.53;1.97;;;26.40;95.70;;;;;;5048956;28;20440;-64
2022/09/13 10:17:17;;;;;;;3.00;1.60;;;26.90;95.80;;;;;;5050733;28;20432;-65
2022/09/13 10:19:57;;;;;;;2.73;2.10;;;27.40;96.00;;;;;;5051352;28;20563;-65
2022/09/13 10:22:25;;;;;;;2.23;1.90;;;27.70;95.00;;;;;;5050467;28;20464;-64
2022/09/13 10:24:52;;;;;;;3.43;1.90;;;27.80;93.70;;;;;;5051660;28;20456;-66
2022/09/13 10:27:23;;;;;;;2.07;1.87;;;28.30;92.80;;;;;;5050681;28;20953;-65
2022/09/13 10:29:55;;;;;;;2.60;2.10;;;28.50;91.30;;;;;;5051665;28;20435;-64
2022/09/13 10:32:22;;;;;;;3.73;2.27;;;28.80;92.30;;;;;;5048972;28;20467;-65
2022/09/13 10:34:50;;;;;;;1.97;1.73;;;29.10;92.00;;;;;;5052184;28;20467;-65
2022/09/13 10:37:21;;;;;;;3.70;1.90;;;29.60;90.20;;;;;;5052983;28;20446;-64
2022/09/13 10:40:04;;;;;;;3.00;2.07;;;29.80;87.50;;;;;;5050577;28;20558;-64
2022/09/13 10:42:31;;;;;;;3.03;1.50;;;30.10;87.20;;;;;;5047865;28;20470;-65
2022/09/13 10:45:01;;;;;;;2.67;1.50;;;30.40;86.00;;;;;;5052998;28;20471;-66
2022/09/13 10:47:33;;;;;;;2.73;1.57;;;30.80;84.40;;;;;;5052737;28;21159;-65
2022/09/13 10:50:12;;;;;;;2.23;1.30;;;31.10;79.80;;;;;;5053001;28;20440;-65
2022/09/13 10:52:44;;;;;;;1.70;1.50;;;31.50;79.60;;;;;;5052377;28;20494;-65
2022/09/13 10:55:33;;;;;;;3.10;1.57;;;31.50;80.10;;;;;;5052868;28;20448;-65
2022/09/13 10:58:17;;;;;;;1.53;1.40;;;31.50;75.50;;;;;;5048898;28;20636;-65
2022/09/13 11:01:18;;;;;;;1.90;1.53;;;31.10;77.10;;;;;;5052706;28;20475;-65
2022/09/13 11:04:05;;;;;;;2.53;2.13;;;31.40;76.40;;;;;;4995726;28;20450;-64
2022/09/13 11:06:41;;;;;;;1.90;1.40;;;31.30;70.10;;;;;;5052938;28;20451;-64
2022/09/13 11:09:13;;;;;;;3.00;1.93;;;31.50;74.40;;;;;;5052474;28;20884;-65
2022/09/13 11:11:48;;;;;;;1.50;1.30;;;32.30;69.90;;;;;;5052618;28;20478;-65
2022/09/13 11:14:32;;;;;;;11.53;2.30;;;31.80;70.10;;;;;;5052558;28;20447;-65
2022/09/13 11:17:08;;;;;;;2.73;1.50;;;31.20;69.40;;;;;;5052673;28;20439;-64
2022/09/13 11:20:13;;;;;;;1.60;1.40;;;31.10;76.20;;;;;;5052318;28;21012;-65
2022/09/13 11:23:11;;;;;;;1.80;1.20;;;31.80;71.10;;;;;;5051913;28;20456;-66
2022/09/13 11:25:55;;;;;;;1.40;1.30;;;32.90;67.20;;;;;;5042801;28;20459;-65
2022/09/13 11:28:28;;;;;;;2.20;1.10;;;34.30;62.90;;;;;;5052711;28;20463;-65
2022/09/13 11:31:21;;;;;;;2.27;1.43;;;34.50;58.70;;;;;;5052545;28;20808;-65
2022/09/13 11:34:01;;;;;;;1.73;1.40;;;33.70;60.30;;;;;;5052061;28;20475;-65
2022/09/13 11:37:14;;;;;;;3.67;1.17;;;33.80;63.30;;;;;;5052242;28;20440;-65
2022/09/13 11:39:51;;;;;;;2.73;1.40;;;33.60;58.60;;;;;;5041588;28;20488;-65
2022/09/13 11:42:32;;;;;;;1.67;1.30;;;32.60;59.70;;;;;;5052035;28;20474;-66
2022/09/13 11:45:19;;;;;;;1.60;1.17;;;31.50;61.50;;;;;;5051845;28;20440;-65
2022/09/13 11:48:02;;;;;;;4.27;1.50;;;31.10;63.90;;;;;;5051712;28;20964;-65
2022/09/13 11:50:42;;;;;;;1.70;1.23;;;31.40;62.40;;;;;;5051714;28;20444;-65
2022/09/13 11:53:38;;;;;;;1.97;1.17;;;31.80;61.60;;;;;;5051366;28;20464;-65
2022/09/13 11:56:09;;;;;;;1.37;1.20;;;33.10;60.60;;;;;;5051671;28;20459;-65
2022/09/13 11:58:42;;;;;;;1.40;1.10;;;34.40;58.30;;;;;;5051879;28;20454;-65
2022/09/13 12:01:13;;;;;;;3.33;1.37;;;34.50;57.20;;;;;;5051536;28;20484;-66
2022/09/13 12:03:49;;;;;;;5.53;1.57;;;33.90;56.90;;;;;;5051173;28;20490;-65
2022/09/13 12:06:22;;;;;;;3.30;1.77;;;33.20;56.90;;;;;;5051726;28;20475;-65
2022/09/13 12:08:54;;;;;;;5.70;1.60;;;32.80;61.30;;;;;;5051505;28;20444;-65
2022/09/13 12:11:25;;;;;;;1.63;1.20;;;33.30;61.60;;;;;;5051433;28;20464;-66
2022/09/13 12:13:55;;;;;;;5.47;1.97;;;34.00;57.60;;;;;;5051029;28;20463;-65
2022/09/13 12:16:26;;;;;;;2.07;1.00;;;34.30;56.10;;;;;;5051637;28;20451;-65
2022/09/13 12:18:56;;;;;;;1.40;1.30;;;35.10;55.60;;;;;;5051217;28;20459;-66
2022/09/13 12:21:27;;;;;;;3.17;1.20;;;35.20;56.60;;;;;;5051077;28;20492;-66
2022/09/13 12:24:02;;;;;;;3.17;1.20;;;35.40;53.60;;;;;;5051058;28;21142;-66
2022/09/13 12:26:34;;;;;;;2.00;1.30;;;35.40;54.20;;;;;;5051250;28;20451;-65
2022/09/13 12:29:07;;;;;;;1.67;1.13;;;34.60;53.80;;;;;;5051323;28;20459;-66
2022/09/13 12:31:33;;;;;;;2.27;1.10;;;34.20;54.70;;;;;;5050915;28;21004;-65
2022/09/13 12:34:05;;;;;;;2.77;1.40;;;33.70;53.40;;;;;;5050698;28;20444;-65
2022/09/13 12:36:58;;;;;;;1.17;0.97;;;33.50;56.00;;;;;;5050594;28;20460;-65
2022/09/13 12:39:55;;;;;;;2.00;1.23;;;33.00;54.70;;;;;;5050949;28;20493;-66
2022/09/13 12:42:46;;;;;;;1.40;0.90;;;32.40;57.80;;;;;;5050541;28;20554;-65
2022/09/13 12:45:34;;;;;;;1.30;1.10;;;32.20;58.50;;;;;;5050820;28;20574;-64
2022/09/13 12:48:19;;;;;;;2.00;1.30;;;32.70;55.20;;;;;;5050784;28;20438;-66
2022/09/13 12:51:10;;;;;;;2.50;1.37;;;33.10;57.00;;;;;;5051102;28;20439;-65
2022/09/13 12:54:17;;;;;;;1.20;1.10;;;34.10;57.20;;;;;;5046721;28;20463;-65
2022/09/13 12:56:58;;;;;;;3.07;1.30;;;35.30;50.40;;;;;;5050632;28;20435;-66
2022/09/13 12:59:49;;;;;;;1.03;0.93;;;35.80;50.10;;;;;;5048995;28;20440;-65
2022/09/13 13:02:41;;;;;;;1.97;1.30;;;36.00;50.20;;;;;;5049619;28;20462;-65
2022/09/13 13:05:21;;;;;;;1.30;1.00;;;35.50;50.60;;;;;;5035664;28;20467;-64
2022/09/13 13:07:53;;;;;;;2.17;1.50;;;34.90;52.20;;;;;;5045809;28;20454;-65
2022/09/13 13:10:29;;;;;;;1.67;1.17;;;33.70;51.60;;;;;;5050506;28;20440;-65
2022/09/13 13:12:57;;;;;;;3.10;1.20;;;33.80;52.40;;;;;;5050132;28;20554;-65